Zhong Shan Men — 3FLE6 — position and weather

sailwx.info

Track history (hours):
 
Tides and Currents Weather Stations Pressure Air Temp Water Temp Dewpoint Dewpoint Depression Visibility Wind Speed Wind Dir Waves Ship Positions

Zhong Shan Men

Last reported at 2017-Aug-08 13:27 UTC. Time now 2017-Aug-19 10:56 UTC.
Position N 38°20' E 121°36'.
Warning: this ship's position is 10 days out of date.

Length 189 m; draft 7.4 m.

Type: Cargo ship. MMSI: 351339000.

Date/timePositionNaut miles runAvg speedWind from/ knotsBaromVisibWave heightAir tempDewpointWater temp
2017-Aug-08 13:27N 38°20' E 121°36'612.8
2017-Aug-08 12:58N 38°18' E 121°43'1112.8
2017-Aug-08 12:06N 38°12' E 121°55'213.0
2017-Aug-08 11:59N 38°11' E 121°57'813.2
2017-Aug-08 11:22N 38°06' E 122°04'613.6
2017-Aug-08 10:54N 38°02' E 122°10'513.5
2017-Aug-08 10:30N 37°58' E 122°15'713.6
2017-Aug-08 10:00N 37°53' E 122°22'4213.4
2017-Aug-08 06:50N 37°18' E 122°52'812.7
2017-Aug-08 06:11N 37°10' E 122°53'212.7
2017-Aug-08 06:00N 37°08' E 122°53'612.5
2017-Aug-08 05:30N 37°02' E 122°53'612.5
2017-Aug-08 05:00N 36°55' E 122°53'612.5
2017-Aug-08 04:30N 36°49' E 122°53'185 4.2
2017-Aug-06 08:43N 35°21' E 119°32'0 0.0
2017-Aug-06 08:30N 35°21' E 119°32'0 0.0
2017-Aug-06 08:00N 35°21' E 119°32'0 0.0
2017-Aug-06 07:30N 35°21' E 119°32'0 0.0
2017-Aug-06 06:59N 35°21' E 119°32'0 0.2
2017-Aug-06 06:30N 35°21' E 119°32'3 5.8
2017-Aug-06 06:00N 35°20' E 119°35'4 7.2
2017-Aug-06 05:29N 35°18' E 119°39'3 6.5
2017-Aug-06 05:00N 35°17' E 119°43'4 7.9
2017-Aug-06 04:30N 35°15' E 119°47'3 4.9
2017-Aug-06 03:59N 35°14' E 119°50'612.9
2017-Aug-06 03:29N 35°08' E 119°53'912.3
2017-Aug-06 02:44N 35°06' E 120°04'312.3
2017-Aug-06 02:30N 35°03' E 120°06'713.0
2017-Aug-06 01:56N 34°57' E 120°09'512.3
2017-Aug-06 01:29N 34°51' E 120°11'  
2017-Aug-03 21:10N 38°57' E 117°57'212.6
2017-Aug-03 21:00N 38°57' E 117°55'611.7
2017-Aug-03 20:30N 38°58' E 117°47'1 2.4
2017-Aug-03 19:54N 38°59' E 117°46'0 0.0
2017-Aug-03 19:30N 38°59' E 117°46'0 0.0
2017-Aug-03 19:00N 38°59' E 117°46'0 0.0
2017-Aug-03 18:30N 38°59' E 117°46'0 0.0
2017-Aug-03 17:12N 38°59' E 117°46'0 0.0
2017-Aug-03 17:00N 38°59' E 117°46'0 0.0
2017-Aug-03 16:18N 38°59' E 117°46'0 0.0
2017-Aug-03 16:00N 38°59' E 117°46'0 0.0
2017-Aug-03 15:00N 38°59' E 117°46'0 0.0
2017-Aug-03 14:00N 38°59' E 117°46'0 0.0
2017-Aug-03 13:30N 38°59' E 117°46'0 0.0
2017-Aug-03 13:00N 38°59' E 117°46'0 0.0
2017-Aug-03 12:30N 38°59' E 117°46'0 0.0
2017-Aug-03 12:00N 38°59' E 117°46'0 0.0
2017-Aug-03 11:30N 38°59' E 117°46'0 0.0
2017-Aug-03 10:36N 38°59' E 117°46'0 0.0
2017-Aug-03 10:30N 38°59' E 117°46'0 0.0
2017-Aug-03 10:00N 38°59' E 117°46'0 0.0
2017-Aug-03 09:24N 38°59' E 117°46'0 0.0
2017-Aug-03 09:00N 38°59' E 117°46'0 0.0
2017-Aug-03 08:30N 38°59' E 117°46'0 0.0
2017-Aug-03 08:00N 38°59' E 117°46'0 0.0
2017-Aug-03 07:30N 38°59' E 117°46'0 0.0
2017-Aug-03 07:00N 38°59' E 117°46'0 0.0
2017-Aug-03 06:24N 38°59' E 117°46'0 0.0
2017-Aug-03 05:54N 38°59' E 117°46'0 0.0
2017-Aug-03 05:24N 38°59' E 117°46'0 0.0
2017-Aug-03 05:00N 38°59' E 117°46'0 0.0
2017-Aug-03 04:30N 38°59' E 117°46'0 0.0
2017-Aug-03 04:00N 38°59' E 117°46'0 0.0
2017-Aug-03 03:30N 38°59' E 117°46'0 0.0
2017-Aug-03 03:00N 38°59' E 117°46'0 0.0
2017-Aug-03 02:30N 38°59' E 117°46'0 0.0
2017-Aug-03 02:00N 38°59' E 117°46'0 0.0
2017-Aug-03 01:30N 38°59' E 117°46'0 0.0
2017-Aug-03 01:00N 38°59' E 117°46'0 0.0
2017-Aug-03 00:30N 38°59' E 117°46'0 0.0
2017-Aug-03 00:00N 38°59' E 117°46'0 0.0
2017-Aug-02 23:30N 38°59' E 117°46'0 0.0
2017-Aug-02 23:00N 38°59' E 117°46'0 0.0
2017-Aug-02 22:30N 38°59' E 117°46'0 0.0
2017-Aug-02 22:00N 38°59' E 117°46'0 0.0
2017-Aug-02 21:30N 38°59' E 117°46'0 0.0
2017-Aug-02 21:00N 38°59' E 117°46'0 0.0
2017-Aug-02 20:30N 38°59' E 117°46'0 0.0
2017-Aug-02 20:00N 38°59' E 117°46'0 0.0
2017-Aug-02 16:06N 38°59' E 117°46'0 0.0
2017-Aug-02 15:54N 38°59' E 117°46'0 0.0
2017-Aug-02 15:30N 38°59' E 117°46'0 0.0
2017-Aug-02 15:00N 38°59' E 117°46'0 0.0
2017-Aug-02 13:30N 38°59' E 117°46'0 0.0
2017-Aug-02 13:00N 38°59' E 117°46'0 0.0
2017-Aug-02 12:30N 38°59' E 117°46'0 0.0
2017-Aug-02 12:00N 38°59' E 117°46'0 0.0
2017-Aug-02 11:30N 38°59' E 117°46'0 0.0
2017-Aug-02 11:00N 38°59' E 117°46'0 0.0
2017-Aug-02 10:30N 38°59' E 117°46'0 0.0
2017-Aug-02 10:00N 38°59' E 117°46'0 0.0
2017-Aug-02 09:30N 38°59' E 117°46'0 0.0
2017-Aug-02 09:00N 38°59' E 117°46'0 0.0
2017-Aug-02 08:30N 38°59' E 117°46'0 0.0
2017-Aug-02 08:00N 38°59' E 117°46'0 0.0
2017-Aug-02 07:30N 38°59' E 117°46'0 0.0
2017-Aug-02 06:54N 38°59' E 117°46'0 0.0
2017-Aug-02 06:30N 38°59' E 117°46'0 0.0
2017-Aug-02 06:00N 38°59' E 117°46'0 0.0
2017-Aug-02 05:30N 38°59' E 117°46'0 0.0
2017-Aug-02 05:00N 38°59' E 117°46'0 0.0
2017-Aug-02 04:24N 38°59' E 117°46'0 0.0
2017-Aug-02 04:00N 38°59' E 117°46'0 0.0
2017-Aug-02 03:30N 38°59' E 117°46'0 0.0
2017-Aug-02 03:00N 38°59' E 117°46'0 0.0
2017-Aug-02 02:30N 38°59' E 117°46'0 0.0
2017-Aug-02 01:54N 38°59' E 117°46'  
2017-Jul-29 18:54N 40°15' E 122°05'0 0.0
2017-Jul-29 18:30N 40°15' E 122°05'0 0.0
2017-Jul-29 18:00N 40°15' E 122°05'0 0.0
2017-Jul-29 17:30N 40°15' E 122°05'0 0.0
2017-Jul-29 17:00N 40°15' E 122°05'0 0.0
2017-Jul-29 16:30N 40°15' E 122°05'0 0.0
2017-Jul-29 15:48N 40°15' E 122°05'0 0.0
2017-Jul-29 15:24N 40°15' E 122°05'0 0.0
2017-Jul-29 15:00N 40°15' E 122°05'0 0.0
2017-Jul-29 14:00N 40°15' E 122°05'0 0.0
2017-Jul-29 13:30N 40°15' E 122°05'  
Track history (hours):
 
Tides and Currents Weather Stations Pressure Air Temp Water Temp Dewpoint Dewpoint Depression Visibility Wind Speed Wind Dir Waves Ship Positions

Zhong Shan Men

Last reported at 2017-Aug-08 13:27 UTC. Time now 2017-Aug-19 10:56 UTC.
Position N 38°20' E 121°36'.
Warning: this ship's position is 10 days out of date.

Length 189 m; draft 7.4 m.

Type: Cargo ship. MMSI: 351339000.

Date/timePositionNaut miles runAvg speedWind from/ knotsBaromVisibWave heightAir tempDewpointWater temp
2017-Aug-08 13:27N 38°20' E 121°36'612.8
2017-Aug-08 12:58N 38°18' E 121°43'1112.8
2017-Aug-08 12:06N 38°12' E 121°55'213.0
2017-Aug-08 11:59N 38°11' E 121°57'813.2
2017-Aug-08 11:22N 38°06' E 122°04'613.6
2017-Aug-08 10:54N 38°02' E 122°10'513.5
2017-Aug-08 10:30N 37°58' E 122°15'713.6
2017-Aug-08 10:00N 37°53' E 122°22'4213.4
2017-Aug-08 06:50N 37°18' E 122°52'812.7
2017-Aug-08 06:11N 37°10' E 122°53'212.7
2017-Aug-08 06:00N 37°08' E 122°53'612.5
2017-Aug-08 05:30N 37°02' E 122°53'612.5
2017-Aug-08 05:00N 36°55' E 122°53'612.5
2017-Aug-08 04:30N 36°49' E 122°53'185 4.2
2017-Aug-06 08:43N 35°21' E 119°32'0 0.0
2017-Aug-06 08:30N 35°21' E 119°32'0 0.0
2017-Aug-06 08:00N 35°21' E 119°32'0 0.0
2017-Aug-06 07:30N 35°21' E 119°32'0 0.0
2017-Aug-06 06:59N 35°21' E 119°32'0 0.2
2017-Aug-06 06:30N 35°21' E 119°32'3 5.8
2017-Aug-06 06:00N 35°20' E 119°35'4 7.2
2017-Aug-06 05:29N 35°18' E 119°39'3 6.5
2017-Aug-06 05:00N 35°17' E 119°43'4 7.9
2017-Aug-06 04:30N 35°15' E 119°47'3 4.9
2017-Aug-06 03:59N 35°14' E 119°50'612.9
2017-Aug-06 03:29N 35°08' E 119°53'912.3
2017-Aug-06 02:44N 35°06' E 120°04'312.3
2017-Aug-06 02:30N 35°03' E 120°06'713.0
2017-Aug-06 01:56N 34°57' E 120°09'512.3
2017-Aug-06 01:29N 34°51' E 120°11'  
2017-Aug-03 21:10N 38°57' E 117°57'212.6
2017-Aug-03 21:00N 38°57' E 117°55'611.7
2017-Aug-03 20:30N 38°58' E 117°47'1 2.4
2017-Aug-03 19:54N 38°59' E 117°46'0 0.0
2017-Aug-03 19:30N 38°59' E 117°46'0 0.0
2017-Aug-03 19:00N 38°59' E 117°46'0 0.0
2017-Aug-03 18:30N 38°59' E 117°46'0 0.0
2017-Aug-03 17:12N 38°59' E 117°46'0 0.0
2017-Aug-03 17:00N 38°59' E 117°46'0 0.0
2017-Aug-03 16:18N 38°59' E 117°46'0 0.0
2017-Aug-03 16:00N 38°59' E 117°46'0 0.0
2017-Aug-03 15:00N 38°59' E 117°46'0 0.0
2017-Aug-03 14:00N 38°59' E 117°46'0 0.0
2017-Aug-03 13:30N 38°59' E 117°46'0 0.0
2017-Aug-03 13:00N 38°59' E 117°46'0 0.0
2017-Aug-03 12:30N 38°59' E 117°46'0 0.0
2017-Aug-03 12:00N 38°59' E 117°46'0 0.0
2017-Aug-03 11:30N 38°59' E 117°46'0 0.0
2017-Aug-03 10:36N 38°59' E 117°46'0 0.0
2017-Aug-03 10:30N 38°59' E 117°46'0 0.0
2017-Aug-03 10:00N 38°59' E 117°46'0 0.0
2017-Aug-03 09:24N 38°59' E 117°46'0 0.0
2017-Aug-03 09:00N 38°59' E 117°46'0 0.0
2017-Aug-03 08:30N 38°59' E 117°46'0 0.0
2017-Aug-03 08:00N 38°59' E 117°46'0 0.0
2017-Aug-03 07:30N 38°59' E 117°46'0 0.0
2017-Aug-03 07:00N 38°59' E 117°46'0 0.0
2017-Aug-03 06:24N 38°59' E 117°46'0 0.0
2017-Aug-03 05:54N 38°59' E 117°46'0 0.0
2017-Aug-03 05:24N 38°59' E 117°46'0 0.0
2017-Aug-03 05:00N 38°59' E 117°46'0 0.0
2017-Aug-03 04:30N 38°59' E 117°46'0 0.0
2017-Aug-03 04:00N 38°59' E 117°46'0 0.0
2017-Aug-03 03:30N 38°59' E 117°46'0 0.0
2017-Aug-03 03:00N 38°59' E 117°46'0 0.0
2017-Aug-03 02:30N 38°59' E 117°46'0 0.0
2017-Aug-03 02:00N 38°59' E 117°46'0 0.0
2017-Aug-03 01:30N 38°59' E 117°46'0 0.0
2017-Aug-03 01:00N 38°59' E 117°46'0 0.0
2017-Aug-03 00:30N 38°59' E 117°46'0 0.0
2017-Aug-03 00:00N 38°59' E 117°46'0 0.0
2017-Aug-02 23:30N 38°59' E 117°46'0 0.0
2017-Aug-02 23:00N 38°59' E 117°46'0 0.0
2017-Aug-02 22:30N 38°59' E 117°46'0 0.0
2017-Aug-02 22:00N 38°59' E 117°46'0 0.0
2017-Aug-02 21:30N 38°59' E 117°46'0 0.0
2017-Aug-02 21:00N 38°59' E 117°46'0 0.0
2017-Aug-02 20:30N 38°59' E 117°46'0 0.0
2017-Aug-02 20:00N 38°59' E 117°46'0 0.0
2017-Aug-02 16:06N 38°59' E 117°46'0 0.0
2017-Aug-02 15:54N 38°59' E 117°46'0 0.0
2017-Aug-02 15:30N 38°59' E 117°46'0 0.0
2017-Aug-02 15:00N 38°59' E 117°46'0 0.0
2017-Aug-02 13:30N 38°59' E 117°46'0 0.0
2017-Aug-02 13:00N 38°59' E 117°46'0 0.0
2017-Aug-02 12:30N 38°59' E 117°46'0 0.0
2017-Aug-02 12:00N 38°59' E 117°46'0 0.0
2017-Aug-02 11:30N 38°59' E 117°46'0 0.0
2017-Aug-02 11:00N 38°59' E 117°46'0 0.0
2017-Aug-02 10:30N 38°59' E 117°46'0 0.0
2017-Aug-02 10:00N 38°59' E 117°46'0 0.0
2017-Aug-02 09:30N 38°59' E 117°46'0 0.0
2017-Aug-02 09:00N 38°59' E 117°46'0 0.0
2017-Aug-02 08:30N 38°59' E 117°46'0 0.0
2017-Aug-02 08:00N 38°59' E 117°46'0 0.0
2017-Aug-02 07:30N 38°59' E 117°46'0 0.0
2017-Aug-02 06:54N 38°59' E 117°46'0 0.0
2017-Aug-02 06:30N 38°59' E 117°46'0 0.0
2017-Aug-02 06:00N 38°59' E 117°46'0 0.0
2017-Aug-02 05:30N 38°59' E 117°46'0 0.0
2017-Aug-02 05:00N 38°59' E 117°46'0 0.0
2017-Aug-02 04:24N 38°59' E 117°46'0 0.0
2017-Aug-02 04:00N 38°59' E 117°46'0 0.0
2017-Aug-02 03:30N 38°59' E 117°46'0 0.0
2017-Aug-02 03:00N 38°59' E 117°46'0 0.0
2017-Aug-02 02:30N 38°59' E 117°46'0 0.0
2017-Aug-02 01:54N 38°59' E 117°46'  
2017-Jul-29 18:54N 40°15' E 122°05'0 0.0
2017-Jul-29 18:30N 40°15' E 122°05'0 0.0
2017-Jul-29 18:00N 40°15' E 122°05'0 0.0
2017-Jul-29 17:30N 40°15' E 122°05'0 0.0
2017-Jul-29 17:00N 40°15' E 122°05'0 0.0
2017-Jul-29 16:30N 40°15' E 122°05'0 0.0
2017-Jul-29 15:48N 40°15' E 122°05'0 0.0
2017-Jul-29 15:24N 40°15' E 122°05'0 0.0
2017-Jul-29 15:00N 40°15' E 122°05'0 0.0
2017-Jul-29 14:00N 40°15' E 122°05'0 0.0
2017-Jul-29 13:30N 40°15' E 122°05'  

Dump ship's entire track history